Time;durP1;ratioP1;P1;durP2;ratioP2;P2;SDS_P1;SDS_P2;PMS_P1;PMS_P2;Temp;Humidity;BMP_temperature;BMP_pressure;BME280_temperature;BME280_humidity;BME280_pressure;Samples;Min_cycle;Max_cycle;Signal;HPM_P1;HPM_P2
2022/03/12 00:00:18;;;;;;;22.03;15.50;;;;;;;1.95;54.57;100620.56;5070166;28;20331;-57
2022/03/12 00:02:46;;;;;;;14.80;11.60;;;;;;;2.12;54.55;100658.03;5070275;28;20195;-57
2022/03/12 00:05:13;;;;;;;15.40;11.30;;;;;;;2.15;54.75;100660.78;5061454;28;20284;-57
2022/03/12 00:07:42;;;;;;;12.83;9.87;;;;;;;2.09;54.58;100658.69;5050393;28;20196;-57
2022/03/12 00:10:12;;;;;;;13.97;10.27;;;;;;;2.11;54.73;100659.72;5049926;28;20765;-57
2022/03/12 00:12:39;;;;;;;14.93;10.37;;;;;;;2.11;55.08;100659.72;5049909;28;20594;-57
2022/03/12 00:15:09;;;;;;;13.53;10.23;;;;;;;2.11;54.71;100661.34;5059682;28;20204;-57
2022/03/12 00:17:37;;;;;;;12.77;10.87;;;;;;;2.07;55.35;100659.38;5059180;28;20274;-57
2022/03/12 00:20:12;;;;;;;15.13;11.63;;;;;;;1.95;55.26;100658.56;5070119;28;20780;-58
2022/03/12 00:22:41;;;;;;;19.63;11.40;;;;;;;1.83;55.79;100666.19;5069833;28;20201;-57
2022/03/12 00:25:11;;;;;;;19.83;11.67;;;;;;;1.52;55.97;100663.16;5069714;28;20195;-57
2022/03/12 00:27:41;;;;;;;19.13;12.33;;;;;;;1.35;57.12;100656.03;5070217;28;20293;-57
2022/03/12 00:30:10;;;;;;;13.27;10.60;;;;;;;1.35;57.51;100658.56;5067041;28;20191;-57
2022/03/12 00:32:37;;;;;;;15.60;12.00;;;;;;;1.38;57.46;100662.97;5049576;28;21000;-57
2022/03/12 00:35:05;;;;;;;14.10;10.17;;;;;;;1.36;57.48;100659.44;5049954;28;20196;-57
2022/03/12 00:37:32;;;;;;;15.00;9.63;;;;;;;1.18;58.17;100661.56;5049747;28;20192;-57
2022/03/12 00:39:59;;;;;;;13.83;9.10;;;;;;;1.08;59.51;100666.72;5049591;28;20216;-57
2022/03/12 00:42:27;;;;;;;12.10;9.07;;;;;;;0.53;61.84;100634.88;5049740;28;20535;-57
2022/03/12 00:44:54;;;;;;;14.60;9.57;;;;;;;0.71;62.76;100682.53;5049894;28;20188;-57
2022/03/12 00:47:21;;;;;;;11.63;8.93;;;;;;;0.71;63.93;100675.84;5049713;28;20250;-57
2022/03/12 00:49:49;;;;;;;13.00;9.30;;;;;;;0.67;64.44;100668.78;5049821;28;20203;-58
2022/03/12 00:52:16;;;;;;;12.03;9.50;;;;;;;0.34;68.32;100673.84;5049741;28;20192;-57
2022/03/12 00:54:43;;;;;;;14.70;10.07;;;;;;;-0.10;72.82;100673.00;5049892;28;20208;-58
2022/03/12 00:57:12;;;;;;;17.97;11.97;;;;;;;-0.33;74.67;100642.59;5049595;28;20705;-57
2022/03/12 00:59:41;;;;;;;18.43;11.33;;;;;;;-0.06;75.00;100680.06;5049540;28;20224;-58
2022/03/12 01:02:10;;;;;;;21.10;12.43;;;;;;;-0.19;76.18;100669.78;5049702;28;20594;-58
2022/03/12 01:04:38;;;;;;;16.73;11.80;;;;;;;-0.31;77.20;100677.31;5049709;28;20575;-58
2022/03/12 01:07:05;;;;;;;18.50;13.80;;;;;;;-0.32;77.36;100667.97;5048758;28;20436;-57
2022/03/12 01:09:32;;;;;;;16.13;11.50;;;;;;;-0.35;78.57;100671.88;5049403;28;20279;-58
2022/03/12 01:11:59;;;;;;;13.17;10.50;;;;;;;-0.54;78.13;100643.44;5049412;28;20197;-58
2022/03/12 01:14:26;;;;;;;15.77;11.90;;;;;;;-0.54;79.52;100671.22;5049326;28;20667;-57
2022/03/12 01:16:57;;;;;;;14.97;11.27;;;;;;;-0.66;79.89;100677.06;5049404;28;20192;-58
2022/03/12 01:19:24;;;;;;;17.30;11.57;;;;;;;-0.76;80.01;100684.66;5049748;28;20231;-57
2022/03/12 01:21:51;;;;;;;12.37;10.90;;;;;;;-0.78;80.53;100687.84;5049340;28;20575;-58
2022/03/12 01:24:18;;;;;;;12.97;10.23;;;;;;;-0.72;80.25;100693.38;5069422;28;20670;-57
2022/03/12 01:26:45;;;;;;;10.87;9.43;;;;;;;-0.92;79.56;100669.09;5072885;28;20203;-58
2022/03/12 01:29:11;;;;;;;15.80;12.13;;;;;;;-0.87;79.97;100684.56;5072895;28;20666;-57
2022/03/12 01:31:39;;;;;;;16.38;13.32;;;;;;;-0.91;80.91;100688.50;5072257;28;20452;-58
2022/03/12 01:34:07;;;;;;;13.57;11.10;;;;;;;-0.84;80.55;100685.72;5072722;28;20191;-58
2022/03/12 01:36:34;;;;;;;12.90;10.37;;;;;;;-0.91;80.63;100686.00;5072969;28;20200;-57
2022/03/12 01:39:01;;;;;;;12.87;10.87;;;;;;;-0.84;80.85;100695.78;5072744;28;20215;-57
2022/03/12 01:41:30;;;;;;;13.23;10.87;;;;;;;-0.84;81.50;100695.78;5073002;28;20234;-58
2022/03/12 01:43:59;;;;;;;14.77;10.70;;;;;;;-0.98;81.12;100677.78;5072561;28;20207;-57
2022/03/12 01:46:34;;;;;;;16.23;10.73;;;;;;;-0.97;80.81;100693.06;5072730;28;20180;-57
2022/03/12 01:49:06;;;;;;;18.33;12.23;;;;;;;-0.97;80.50;100694.69;5072616;28;20184;-57
2022/03/12 01:51:34;;;;;;;14.57;11.33;;;;;;;-1.06;80.14;100699.88;5072433;28;20191;-57
2022/03/12 01:54:03;;;;;;;17.87;12.90;;;;;;;-1.22;81.04;100700.28;5072629;28;20199;-57
2022/03/12 01:56:31;;;;;;;16.33;11.63;;;;;;;-1.19;81.19;100704.69;5072479;28;20191;-57
2022/03/12 01:58:59;;;;;;;16.90;12.10;;;;;;;-1.15;80.73;100705.84;5072390;28;20231;-57
2022/03/12 02:01:28;;;;;;;17.07;11.50;;;;;;;-1.04;80.38;100705.91;5072055;28;20192;-57
2022/03/12 02:03:56;;;;;;;16.77;10.97;;;;;;;-1.00;80.29;100707.06;5072026;28;20756;-57
2022/03/12 02:06:24;;;;;;;17.17;11.73;;;;;;;-0.84;79.91;100708.41;5072103;28;20230;-56
2022/03/12 02:08:58;;;;;;;18.43;11.83;;;;;;;-0.76;79.07;100704.84;5072228;28;20195;-57
2022/03/12 02:11:27;;;;;;;16.27;11.73;;;;;;;-0.75;78.92;100701.59;5072313;28;20186;-57
2022/03/12 02:13:59;;;;;;;19.70;14.38;;;;;;;-0.58;77.89;100692.81;5070779;28;20437;-57
2022/03/12 02:16:27;;;;;;;17.43;11.70;;;;;;;-0.54;77.22;100706.53;5071938;28;20191;-57
2022/03/12 02:18:55;;;;;;;17.63;11.53;;;;;;;-0.82;76.70;100700.94;5072143;28;20204;-58
2022/03/12 02:21:34;;;;;;;18.83;12.33;;;;;;;-0.96;77.81;100696.47;5072078;28;20196;-57
2022/03/12 02:24:04;;;;;;;18.87;12.33;;;;;;;-0.87;77.38;100695.56;5072058;28;20187;-57
2022/03/12 02:26:31;;;;;;;18.17;12.23;;;;;;;-0.82;77.37;100699.31;5072119;28;20198;-57
2022/03/12 02:28:58;;;;;;;18.33;11.87;;;;;;;-0.71;77.70;100701.06;5071714;28;20192;-58
2022/03/12 02:31:26;;;;;;;20.27;13.03;;;;;;;-0.75;77.50;100694.00;5071660;28;20203;-58
2022/03/12 02:33:55;;;;;;;17.10;11.37;;;;;;;-0.91;77.36;100653.19;5071760;28;20215;-57
2022/03/12 02:36:26;;;;;;;16.10;11.40;;;;;;;-0.79;76.69;100704.59;5071668;28;20649;-58
2022/03/12 02:38:54;;;;;;;17.37;11.87;;;;;;;-0.83;76.37;100696.69;5071713;28;20244;-58
2022/03/12 02:41:24;;;;;;;19.03;12.13;;;;;;;-0.82;77.12;100701.84;5071693;28;20559;-58
2022/03/12 02:43:52;;;;;;;22.40;12.87;;;;;;;-0.84;77.04;100708.41;5071563;28;20295;-57
2022/03/12 02:46:19;;;;;;;20.08;14.05;;;;;;;-0.77;76.71;100703.09;5070709;28;20438;-57
2022/03/12 02:48:51;;;;;;;16.57;11.83;;;;;;;-0.67;76.79;100720.72;5071651;28;20577;-58
2022/03/12 02:51:22;;;;;;;16.30;10.53;;;;;;;-0.65;76.12;100705.69;5071318;28;20282;-57
2022/03/12 02:53:51;;;;;;;15.40;11.17;;;;;;;-0.88;75.17;100666.03;5071224;28;20201;-57
2022/03/12 02:56:19;;;;;;;16.03;10.57;;;;;;;-0.66;75.72;100701.44;5071252;28;20191;-58
2022/03/12 02:58:48;;;;;;;16.33;11.10;;;;;;;-0.64;74.70;100700.78;5073638;28;20627;-58
2022/03/12 03:01:15;;;;;;;17.47;10.60;;;;;;;-0.66;74.65;100701.44;5080422;28;20216;-58
2022/03/12 03:03:42;;;;;;;15.73;10.80;;;;;;;-0.64;74.76;100710.88;5081228;28;20183;-56
2022/03/12 03:06:10;;;;;;;16.43;10.33;;;;;;;-0.66;74.11;100704.81;5082055;28;20191;-58
2022/03/12 03:08:39;;;;;;;13.03;10.30;;;;;;;-0.61;74.05;100715.28;5073887;28;20195;-58
2022/03/12 03:11:11;;;;;;;16.90;10.80;;;;;;;-0.62;74.51;100714.41;5070957;28;20596;-57
2022/03/12 03:13:40;;;;;;;15.97;11.17;;;;;;;-0.57;73.71;100704.66;5070832;28;20547;-57
2022/03/12 03:16:11;;;;;;;14.27;9.60;;;;;;;-0.57;74.09;100716.41;5071149;28;20230;-57
2022/03/12 03:18:40;;;;;;;12.47;8.97;;;;;;;-0.54;74.11;100716.63;5070720;28;20202;-57
2022/03/12 03:21:11;;;;;;;19.83;10.40;;;;;;;-0.49;73.87;100712.84;5070783;28;20225;-57
2022/03/12 03:23:38;;;;;;;15.13;9.07;;;;;;;-0.56;73.05;100703.91;5070981;28;20282;-62
2022/03/12 03:26:05;;;;;;;13.13;9.07;;;;;;;-0.52;74.11;100715.16;5070544;28;20200;-57
2022/03/12 03:28:32;;;;;;;17.30;8.90;;;;;;;-0.47;72.88;100709.69;5070462;28;20202;-57
2022/03/12 03:30:59;;;;;;;12.63;8.73;;;;;;;-0.47;72.63;100708.81;5070496;28;20292;-57
2022/03/12 03:33:28;;;;;;;11.50;8.93;;;;;;;-0.46;72.14;100713.06;5070784;28;20275;-57
2022/03/12 03:35:55;;;;;;;15.67;8.90;;;;;;;-0.40;72.43;100713.56;5070644;28;20206;-57
2022/03/12 03:38:22;;;;;;;14.53;9.20;;;;;;;-0.47;71.58;100708.81;5070594;28;20195;-57
2022/03/12 03:40:50;;;;;;;13.73;9.57;;;;;;;-0.41;71.13;100711.81;5070653;28;21070;-57
2022/03/12 03:43:20;;;;;;;9.63;7.13;;;;;;;-0.43;70.62;100709.16;5070517;28;20264;-57
2022/03/12 03:45:50;;;;;;;10.37;7.90;;;;;;;-0.40;70.25;100711.03;5070184;28;20187;-57
2022/03/12 03:48:18;;;;;;;10.23;7.30;;;;;;;-0.39;69.42;100708.66;5070353;28;20670;-57
2022/03/12 03:50:48;;;;;;;11.50;7.53;;;;;;;-0.37;69.73;100711.28;5070011;28;20209;-57
2022/03/12 03:53:17;;;;;;;12.63;8.07;;;;;;;-0.33;68.68;100706.56;5070344;28;20639;-57
2022/03/12 03:55:44;;;;;;;12.03;7.87;;;;;;;-0.31;67.20;100719.34;5070226;28;20557;-57
2022/03/12 03:58:14;;;;;;;11.40;7.60;;;;;;;-0.32;65.38;100726.03;5069927;28;20205;-58
2022/03/12 04:00:53;;;;;;;14.87;8.10;;;;;;;-0.33;65.04;100728.44;5070252;28;20222;-58
2022/03/12 04:03:20;;;;;;;10.97;7.87;;;;;;;-0.46;65.45;100733.28;5070384;28;20242;-58
2022/03/12 04:05:48;;;;;;;11.10;7.63;;;;;;;-0.41;65.06;100732.03;5070003;28;20284;-58
2022/03/12 04:08:16;;;;;;;9.27;7.83;;;;;;;-0.35;65.06;100737.53;5070529;28;20269;-57
2022/03/12 04:10:43;;;;;;;10.37;7.80;;;;;;;-0.45;63.90;100742.63;5070316;28;20198;-58
2022/03/12 04:13:17;;;;;;;11.13;8.40;;;;;;;-0.49;64.23;100738.97;5070121;28;20298;-58
2022/03/12 04:15:44;;;;;;;14.90;7.73;;;;;;;-0.42;64.22;100742.88;5070004;28;20183;-58
2022/03/12 04:18:12;;;;;;;9.63;7.47;;;;;;;-0.44;63.25;100746.91;5069988;28;20272;-57
2022/03/12 04:20:39;;;;;;;14.87;8.30;;;;;;;-0.43;63.78;100746.13;5069891;28;20276;-58
2022/03/12 04:23:08;;;;;;;12.57;7.97;;;;;;;-0.43;63.45;100752.06;5070334;28;20206;-58
2022/03/12 04:25:35;;;;;;;9.03;7.07;;;;;;;-0.45;63.66;100751.06;5070133;28;20223;-58
2022/03/12 04:28:03;;;;;;;18.07;7.83;;;;;;;-0.47;62.54;100755.13;5069300;28;20187;-58
2022/03/12 04:30:30;;;;;;;10.00;6.93;;;;;;;-0.47;62.07;100757.66;5069930;28;20191;-58
2022/03/12 04:32:57;;;;;;;11.43;6.93;;;;;;;-0.46;62.30;100756.00;5070088;28;20665;-58
2022/03/12 04:35:24;;;;;;;20.20;7.87;;;;;;;-0.57;62.07;100726.50;5067622;28;20209;-58
2022/03/12 04:37:52;;;;;;;9.50;8.07;;;;;;;-0.40;60.88;100759.00;5064662;28;20275;-58
2022/03/12 04:40:23;;;;;;;13.43;10.60;;;;;;;-0.40;61.22;100761.53;5075354;28;20223;-58
2022/03/12 04:42:51;;;;;;;16.30;9.73;;;;;;;-0.37;61.16;100769.34;5069881;28;20286;-58
2022/03/12 04:45:21;;;;;;;12.43;9.07;;;;;;;-0.38;60.71;100772.63;5069617;28;20202;-57
2022/03/12 04:47:50;;;;;;;21.67;11.67;;;;;;;-0.35;60.85;100772.88;5070211;28;20199;-58
2022/03/12 04:50:18;;;;;;;15.70;11.03;;;;;;;-0.40;61.07;100772.50;5069639;28;20257;-58
2022/03/12 04:52:47;;;;;;;24.02;19.10;;;;;;;-0.30;61.53;100771.63;5069358;28;20425;-58
2022/03/12 04:55:16;;;;;;;19.33;14.47;;;;;;;-0.32;60.58;100774.00;5069624;28;20192;-58
2022/03/12 04:57:44;;;;;;;17.67;12.30;;;;;;;-0.27;59.62;100775.25;5069313;28;20202;-58
2022/03/12 05:00:17;;;;;;;16.57;11.27;;;;;;;-0.15;59.73;100782.91;5073056;28;20238;-57
2022/03/12 05:02:44;;;;;;;14.13;10.00;;;;;;;-0.15;60.28;100765.22;5073578;28;21017;-57
2022/03/12 05:05:12;;;;;;;14.13;9.33;;;;;;;-0.12;58.91;100768.00;5073570;28;21036;-57
2022/03/12 05:07:43;;;;;;;12.17;8.93;;;;;;;-0.11;58.89;100768.09;5073285;28;20231;-58
2022/03/12 05:10:11;;;;;;;11.70;7.77;;;;;;;-0.15;58.90;100772.81;5073361;28;20196;-58
2022/03/12 05:12:39;;;;;;;17.37;8.60;;;;;;;-0.13;58.36;100768.75;5077762;28;20183;-58
2022/03/12 05:15:13;;;;;;;14.63;7.97;;;;;;;-0.09;58.19;100768.25;5081642;28;20637;-58
2022/03/12 05:17:42;;;;;;;15.57;10.03;;;;;;;-0.10;58.57;100771.50;5073079;28;20260;-58
2022/03/12 05:20:10;;;;;;;14.77;8.37;;;;;;;-0.12;58.26;100771.41;5072863;28;20260;-57
2022/03/12 05:22:37;;;;;;;14.10;9.27;;;;;;;-0.05;58.26;100775.28;5072852;28;20219;-57
2022/03/12 05:25:05;;;;;;;14.33;9.87;;;;;;;0.01;57.48;100778.28;5073022;28;20192;-57
2022/03/12 05:27:32;;;;;;;21.95;12.80;;;;;;;0.09;56.43;100787.34;5072579;28;20425;-57
2022/03/12 05:29:59;;;;;;;20.90;12.90;;;;;;;0.13;56.37;100781.78;5073139;28;20219;-58
2022/03/12 05:32:27;;;;;;;21.00;11.60;;;;;;;0.18;55.78;100790.59;5072946;28;20198;-58
2022/03/12 05:34:54;;;;;;;20.55;10.48;;;;;;;0.16;54.94;100791.25;5072655;28;20449;-58
2022/03/12 05:37:21;;;;;;;13.23;8.60;;;;;;;0.25;55.44;100787.75;5072624;28;20192;-58
2022/03/12 05:39:51;;;;;;;11.57;9.30;;;;;;;0.29;54.59;100793.94;5072473;28;20677;-57
2022/03/12 05:42:22;;;;;;;12.70;9.00;;;;;;;0.28;54.27;100782.94;5072780;28;20206;-57
2022/03/12 05:44:50;;;;;;;13.37;8.87;;;;;;;0.31;53.81;100798.34;5072625;28;20203;-57
2022/03/12 05:47:18;;;;;;;17.63;9.93;;;;;;;0.36;54.53;100794.53;5072591;28;20199;-57
2022/03/12 05:49:46;;;;;;;14.40;9.40;;;;;;;0.43;54.27;100795.88;5072381;28;20282;-57
2022/03/12 05:52:14;;;;;;;12.13;8.77;;;;;;;0.38;52.20;100803.13;5072605;28;20622;-56
2022/03/12 05:54:41;;;;;;;12.63;9.77;;;;;;;0.45;52.43;100805.34;5072538;28;20188;-56
2022/03/12 05:57:08;;;;;;;13.50;9.50;;;;;;;0.50;52.60;100811.63;5072512;28;20562;-57
2022/03/12 05:59:35;;;;;;;12.43;9.20;;;;;;;0.49;52.05;100809.91;5072073;28;20227;-57
2022/03/12 06:02:02;;;;;;;16.03;11.50;;;;;;;0.46;58.10;100813.81;5072181;28;20255;-57
2022/03/12 06:04:29;;;;;;;21.07;13.07;;;;;;;0.30;60.42;100808.34;5071871;28;20199;-57
2022/03/12 06:06:57;;;;;;;20.17;14.50;;;;;;;0.17;61.94;100809.03;5072219;28;20210;-57
2022/03/12 06:09:24;;;;;;;27.77;18.33;;;;;;;0.07;62.15;100814.13;5071345;28;20438;-58
2022/03/12 06:11:52;;;;;;;20.03;13.40;;;;;;;0.13;62.59;100824.72;5072025;28;20193;-57
2022/03/12 06:14:19;;;;;;;21.53;14.20;;;;;;;0.00;64.93;100822.00;5072328;28;20233;-58
2022/03/12 06:16:48;;;;;;;19.47;14.50;;;;;;;-0.07;65.92;100825.69;5071760;28;20210;-58
2022/03/12 06:19:17;;;;;;;20.43;14.20;;;;;;;-0.14;67.16;100837.72;5068464;28;20195;-58
2022/03/12 06:21:44;;;;;;;21.67;14.33;;;;;;;-0.49;68.99;100799.53;5071921;28;20227;-59
2022/03/12 06:24:12;;;;;;;21.37;14.40;;;;;;;-0.19;70.02;100847.44;5071852;28;20198;-59
2022/03/12 06:26:40;;;;;;;23.73;14.83;;;;;;;-0.27;70.63;100848.47;5073192;28;20241;-60
2022/03/12 06:29:12;;;;;;;21.27;14.30;;;;;;;-0.15;70.74;100846.03;5080443;28;20191;-60
2022/03/12 06:31:39;;;;;;;22.43;14.73;;;;;;;-0.10;70.52;100847.28;5082115;28;20203;-59
2022/03/12 06:34:09;;;;;;;20.07;13.70;;;;;;;0.00;70.67;100842.22;5071343;28;20359;-59
2022/03/12 06:36:37;;;;;;;25.95;17.90;;;;;;;0.09;70.59;100852.16;5070490;28;20430;-59
2022/03/12 06:39:05;;;;;;;20.00;15.17;;;;;;;0.20;71.38;100857.28;5071112;28;20282;-59
2022/03/12 06:41:38;;;;;;;22.33;15.97;;;;;;;0.23;70.58;100855.00;5071153;28;20215;-58
2022/03/12 06:44:08;;;;;;;23.97;15.47;;;;;;;0.18;71.45;100853.75;5069763;28;20282;-58
2022/03/12 06:46:35;;;;;;;23.57;17.40;;;;;;;0.23;71.38;100860.06;5073050;28;20203;-59
2022/03/12 06:49:04;;;;;;;21.70;16.47;;;;;;;0.34;71.67;100863.41;5073547;28;20242;-57
2022/03/12 06:51:31;;;;;;;26.30;17.03;;;;;;;0.40;71.51;100856.31;5080462;28;20274;-58
2022/03/12 06:53:59;;;;;;;27.10;17.67;;;;;;;0.45;70.92;100860.97;5069695;28;20277;-58
2022/03/12 06:56:26;;;;;;;25.13;16.83;;;;;;;0.39;70.73;100862.13;5057998;28;20231;-58
2022/03/12 06:58:54;;;;;;;22.73;15.83;;;;;;;0.35;71.51;100863.56;5076147;28;20227;-57
2022/03/12 07:01:21;;;;;;;23.73;16.50;;;;;;;0.34;71.34;100869.34;5072497;28;20257;-58
2022/03/12 07:03:48;;;;;;;25.83;16.57;;;;;;;0.31;71.54;100866.59;5072011;28;20207;-57
2022/03/12 07:06:15;;;;;;;24.43;17.00;;;;;;;0.45;71.01;100870.19;5070751;28;20199;-58
2022/03/12 07:08:42;;;;;;;21.20;16.30;;;;;;;0.55;71.32;100872.66;5073531;28;20198;-58
2022/03/12 07:11:09;;;;;;;24.03;16.73;;;;;;;0.66;70.28;100865.94;5079787;28;20555;-57
2022/03/12 07:13:36;;;;;;;28.97;18.67;;;;;;;0.74;69.68;100863.22;5077093;28;20202;-59
2022/03/12 07:16:05;;;;;;;28.27;17.60;;;;;;;0.89;69.95;100876.13;5079479;28;20194;-59
2022/03/12 07:18:32;;;;;;;29.03;22.53;;;;;;;1.03;69.82;100867.94;5061410;28;20526;-60
2022/03/12 07:20:59;;;;;;;22.53;16.80;;;;;;;1.22;68.54;100883.75;5053020;28;20196;-60
2022/03/12 07:23:26;;;;;;;27.30;18.13;;;;;;;1.21;68.56;100889.56;5062698;28;20288;-60
2022/03/12 07:25:55;;;;;;;24.30;16.87;;;;;;;1.10;68.91;100892.94;5069734;28;20206;-59
2022/03/12 07:28:22;;;;;;;26.10;16.73;;;;;;;0.98;68.69;100895.44;5070593;28;20200;-59
2022/03/12 07:30:49;;;;;;;23.47;15.87;;;;;;;1.00;68.89;100887.94;5069551;28;20547;-59
2022/03/12 07:33:17;;;;;;;23.20;16.93;;;;;;;1.01;68.46;100894.78;5070817;28;20199;-59
2022/03/12 07:35:44;;;;;;;21.17;16.30;;;;;;;0.97;68.47;100891.13;5070602;28;20551;-59
2022/03/12 07:38:11;;;;;;;29.37;17.47;;;;;;;0.86;68.78;100891.06;5070376;28;20196;-59
2022/03/12 07:40:39;;;;;;;20.23;16.50;;;;;;;0.94;68.95;100897.59;5070336;28;20192;-59
2022/03/12 07:43:07;;;;;;;24.17;17.30;;;;;;;1.01;68.28;100903.28;5069501;28;20231;-59
2022/03/12 07:45:34;;;;;;;25.75;18.88;;;;;;;0.98;67.94;100900.50;5070105;28;20563;-59
2022/03/12 07:48:01;;;;;;;25.57;18.30;;;;;;;1.02;68.76;100896.53;5070526;28;20188;-58
2022/03/12 07:50:30;;;;;;;21.83;17.07;;;;;;;1.07;68.47;100880.09;5070231;28;20211;-58
2022/03/12 07:52:57;;;;;;;28.20;17.37;;;;;;;1.21;69.03;100891.25;5069137;28;20188;-60
2022/03/12 07:55:24;;;;;;;24.50;17.83;;;;;;;1.38;67.61;100890.81;5070214;28;20195;-60
2022/03/12 07:57:52;;;;;;;22.70;18.07;;;;;;;1.43;67.01;100885.34;5070159;28;20740;-59
2022/03/12 08:00:19;;;;;;;25.10;17.30;;;;;;;1.55;66.41;100895.50;5069986;28;20227;-59
2022/03/12 08:02:48;;;;;;;24.57;17.07;;;;;;;1.57;65.37;100886.34;5061501;28;20215;-59
2022/03/12 08:05:17;;;;;;;26.25;20.45;;;;;;;1.78;64.79;100881.22;5067991;28;20456;-59
2022/03/12 08:07:45;;;;;;;25.53;18.40;;;;;;;1.82;64.21;100882.31;5063315;28;20251;-59
2022/03/12 08:10:12;;;;;;;22.93;16.87;;;;;;;2.00;63.50;100888.72;5067616;28;20191;-59
2022/03/12 08:12:39;;;;;;;25.80;17.50;;;;;;;2.06;63.47;100885.75;5069344;28;20195;-59
2022/03/12 08:15:08;;;;;;;21.80;16.20;;;;;;;2.23;63.16;100882.75;5069967;28;20249;-59
2022/03/12 08:17:35;;;;;;;23.57;16.63;;;;;;;2.29;61.39;100880.66;5068293;28;20269;-59
2022/03/12 08:20:05;;;;;;;21.70;16.23;;;;;;;2.55;61.07;100875.78;5065867;28;20570;-59
2022/03/12 08:22:32;;;;;;;18.90;14.50;;;;;;;2.71;59.70;100882.78;5069584;28;20277;-59
2022/03/12 08:25:00;;;;;;;23.33;15.07;;;;;;;2.67;57.02;100884.22;5069833;28;20662;-60
2022/03/12 08:27:27;;;;;;;21.93;14.97;;;;;;;2.63;56.51;100882.25;5069586;28;20202;-59
2022/03/12 08:29:54;;;;;;;21.40;15.03;;;;;;;2.71;56.21;100891.28;5069844;28;20192;-59
2022/03/12 08:32:20;;;;;;;19.67;13.60;;;;;;;2.80;54.79;100893.56;5067872;28;20626;-59
2022/03/12 08:34:47;;;;;;;15.47;12.20;;;;;;;2.89;52.94;100900.16;5068986;28;20202;-59
2022/03/12 08:37:14;;;;;;;18.95;15.48;;;;;;;2.87;53.63;100903.34;5069021;28;20449;-59
2022/03/12 08:39:41;;;;;;;20.70;13.23;;;;;;;2.93;53.37;100907.22;5073624;28;20202;-59
2022/03/12 08:42:10;;;;;;;17.00;12.27;;;;;;;2.94;52.88;100903.88;5073590;28;20577;-59
2022/03/12 08:44:39;;;;;;;19.27;12.77;;;;;;;2.91;54.14;100915.50;5072791;28;21056;-60
2022/03/12 08:47:07;;;;;;;18.20;13.83;;;;;;;2.89;54.12;100914.50;5073641;28;20223;-59
2022/03/12 08:49:35;;;;;;;18.93;14.43;;;;;;;2.80;55.64;100917.25;5054082;28;20200;-59
2022/03/12 08:52:02;;;;;;;21.07;14.83;;;;;;;2.72;56.76;100908.25;5053368;28;20208;-59
2022/03/12 08:54:29;;;;;;;13.90;11.53;;;;;;;2.43;51.05;100912.94;5067505;28;20199;-59
2022/03/12 08:56:56;;;;;;;16.60;10.90;;;;;;;2.40;51.24;100917.78;5072977;28;20219;-59
2022/03/12 08:59:24;;;;;;;21.93;11.37;;;;;;;2.43;51.44;100923.09;5072921;28;20258;-59
2022/03/12 09:01:51;;;;;;;13.53;11.03;;;;;;;2.49;50.23;100922.66;5072237;28;20219;-60
2022/03/12 09:04:19;;;;;;;14.97;10.73;;;;;;;2.56;50.15;100924.81;5072991;28;20195;-59
2022/03/12 09:06:46;;;;;;;14.43;10.93;;;;;;;2.65;49.67;100925.47;5072945;28;20192;-59
2022/03/12 09:09:14;;;;;;;17.30;11.77;;;;;;;2.79;49.25;100924.78;5072756;28;20200;-58
2022/03/12 09:11:41;;;;;;;12.63;10.07;;;;;;;2.88;48.13;100920.38;5072749;28;20658;-59
2022/03/12 09:14:07;;;;;;;15.63;9.67;;;;;;;3.03;47.73;100929.00;5072941;28;20663;-59
2022/03/12 09:16:36;;;;;;;15.30;11.05;;;;;;;3.29;47.83;100920.66;5072598;28;20440;-59
2022/03/12 09:19:04;;;;;;;13.43;10.10;;;;;;;3.51;46.58;100924.72;5072049;28;20203;-59
2022/03/12 09:21:31;;;;;;;13.03;10.03;;;;;;;3.54;44.31;100927.44;5072685;28;20706;-58
2022/03/12 09:23:58;;;;;;;16.67;9.87;;;;;;;3.54;43.69;100918.97;5070381;28;20227;-60
2022/03/12 09:26:25;;;;;;;12.50;9.90;;;;;;;3.43;43.59;100917.38;5068042;28;20218;-60
2022/03/12 09:28:53;;;;;;;13.17;9.20;;;;;;;3.24;44.05;100920.31;5069318;28;20227;-60
2022/03/12 09:31:20;;;;;;;11.07;8.23;;;;;;;3.31;42.87;100917.44;5072120;28;20199;-59
2022/03/12 09:33:49;;;;;;;10.37;7.83;;;;;;;3.18;41.42;100919.91;5080581;28;20184;-60
2022/03/12 09:36:16;;;;;;;12.95;10.73;;;;;;;3.28;41.46;100911.25;5081131;28;20441;-60
2022/03/12 09:38:43;;;;;;;11.73;9.93;;;;;;;3.29;41.30;100915.56;5081613;28;20214;-59
2022/03/12 09:41:11;;;;;;;12.73;10.17;;;;;;;3.23;41.66;100908.41;5083133;28;20254;-59
2022/03/12 09:43:38;;;;;;;11.53;8.67;;;;;;;3.10;40.35;100913.44;5081687;28;20661;-59
2022/03/12 09:46:05;;;;;;;10.27;8.13;;;;;;;3.38;40.25;100906.88;5081243;28;20209;-59
2022/03/12 09:48:32;;;;;;;12.43;9.10;;;;;;;3.41;41.28;100907.09;5064795;28;20206;-60
2022/03/12 09:51:01;;;;;;;12.20;8.97;;;;;;;3.15;41.25;100912.09;5078308;28;20683;-59
2022/03/12 09:53:28;;;;;;;12.93;9.30;;;;;;;3.22;41.88;100901.56;5085078;28;20183;-59
2022/03/12 09:55:55;;;;;;;12.37;9.47;;;;;;;3.54;41.61;100907.13;5085742;28;20191;-59
2022/03/12 09:58:22;;;;;;;12.90;9.40;;;;;;;3.72;41.21;100904.94;5085278;28;20226;-59
2022/03/12 10:00:49;;;;;;;12.30;7.50;;;;;;;3.59;38.84;100902.38;5075373;28;20227;-59
2022/03/12 10:03:16;;;;;;;13.53;9.10;;;;;;;3.66;38.47;100898.53;5071979;28;20227;-60
2022/03/12 10:05:42;;;;;;;10.80;9.10;;;;;;;3.79;38.19;100894.38;5073122;28;20769;-60
2022/03/12 10:08:11;;;;;;;10.50;8.23;;;;;;;3.95;37.41;100878.47;5080975;28;20200;-59
2022/03/12 10:10:38;;;;;;;9.33;7.67;;;;;;;4.04;37.55;100879.91;5080856;28;20373;-59
2022/03/12 10:13:05;;;;;;;12.43;9.63;;;;;;;4.36;37.31;100881.09;5081102;28;20173;-60
2022/03/12 10:15:32;;;;;;;8.13;6.78;;;;;;;4.24;35.60;100878.66;5082216;28;20443;-61
2022/03/12 10:18:00;;;;;;;8.67;6.77;;;;;;;4.41;35.95;100877.16;5077461;28;20720;-60
2022/03/12 10:20:27;;;;;;;9.77;7.33;;;;;;;4.20;36.03;100876.72;5078153;28;20235;-59
2022/03/12 10:22:55;;;;;;;13.60;7.37;;;;;;;4.49;36.11;100881.06;5075423;28;20706;-60
2022/03/12 10:25:24;;;;;;;10.23;7.57;;;;;;;4.72;35.61;100868.94;5076860;28;20545;-60
2022/03/12 10:27:51;;;;;;;10.07;7.50;;;;;;;5.09;34.56;100868.63;5074444;28;20191;-60
2022/03/12 10:30:18;;;;;;;13.03;7.47;;;;;;;5.35;34.83;100878.72;5070705;28;20667;-58
2022/03/12 10:32:47;;;;;;;7.90;6.30;;;;;;;5.40;33.55;100866.22;5070929;28;20198;-58
2022/03/12 10:35:15;;;;;;;8.00;6.00;;;;;;;5.21;32.93;100864.28;5071362;28;20999;-57
2022/03/12 10:37:42;;;;;;;7.40;6.30;;;;;;;5.26;33.75;100873.06;5071116;28;20192;-60
2022/03/12 10:40:12;;;;;;;7.80;6.60;;;;;;;5.02;33.89;100861.44;5071428;28;20282;-59
2022/03/12 10:42:47;;;;;;;8.33;6.83;;;;;;;5.29;34.55;100866.50;5076200;28;20698;-60
2022/03/12 10:45:17;;;;;;;8.57;7.27;;;;;;;5.43;34.09;100861.31;5078298;28;20205;-59
2022/03/12 10:47:46;;;;;;;8.10;6.97;;;;;;;5.44;35.19;100858.84;5082070;28;20190;-60
2022/03/12 10:50:16;;;;;;;11.80;8.87;;;;;;;5.54;34.41;100853.50;5080749;28;20197;-59
2022/03/12 10:52:49;;;;;;;12.83;7.80;;;;;;;5.48;35.81;100852.25;5074953;28;20931;-60
2022/03/12 10:55:24;;;;;;;10.00;8.00;;;;;;;5.49;35.51;100846.38;5071061;28;20699;-60
2022/03/12 10:58:04;;;;;;;7.27;6.10;;;;;;;5.35;35.04;100846.47;5077464;28;20199;-59
2022/03/12 11:00:37;;;;;;;10.33;7.10;;;;;;;4.87;36.38;100846.09;5070255;28;20237;-60
2022/03/12 11:03:05;;;;;;;11.77;7.07;;;;;;;4.83;37.14;100848.38;5076423;28;20196;-60
2022/03/12 11:05:34;;;;;;;9.03;8.07;;;;;;;4.84;37.71;100847.56;5081476;28;20215;-60
2022/03/12 11:08:10;;;;;;;12.27;8.50;;;;;;;4.62;41.06;100856.47;5068766;28;20196;-60
2022/03/12 11:10:43;;;;;;;10.47;8.33;;;;;;;4.38;42.22;100828.63;5070342;28;20203;-60
2022/03/12 11:13:25;;;;;;;15.53;8.57;;;;;;;4.36;43.99;100853.97;5070909;28;20219;-59
2022/03/12 11:16:15;;;;;;;9.07;6.90;;;;;;;3.83;44.40;100859.88;5065703;28;20685;-59
2022/03/12 11:19:05;;;;;;;10.03;8.00;;;;;;;3.90;44.62;100844.25;5069474;28;20248;-60
2022/03/12 11:21:37;;;;;;;12.60;9.57;;;;;;;4.23;45.09;100841.25;5069887;28;20609;-60